createdAt,value
2019-03-21T00:01:29.566Z,5.54
2019-03-21T00:04:22.147Z,5.56
2019-03-21T00:06:57.611Z,5.64
2019-03-21T00:09:56.626Z,5.60
2019-03-21T00:12:44.011Z,5.61
2019-03-21T00:15:23.984Z,5.63
2019-03-21T00:18:12.536Z,5.59
2019-03-21T00:23:39.600Z,5.59
2019-03-21T00:26:10.889Z,5.64
2019-03-21T00:28:47.869Z,5.59
2019-03-21T00:31:20.676Z,5.48
2019-03-21T00:33:56.309Z,5.46
2019-03-21T00:36:33.227Z,5.44
2019-03-21T00:39:06.160Z,5.43
2019-03-21T00:41:41.552Z,5.44
2019-03-21T00:44:18.647Z,5.43
2019-03-21T00:47:01.101Z,5.45
2019-03-21T00:49:42.899Z,5.46
2019-03-21T00:52:16.672Z,5.50
2019-03-21T00:54:55.375Z,5.54
2019-03-21T00:57:31.469Z,5.43
2019-03-21T01:00:14.962Z,5.53
2019-03-21T01:02:47.018Z,5.54
2019-03-21T01:05:19.701Z,5.53
2019-03-21T01:07:52.557Z,5.43
2019-03-21T01:10:25.310Z,5.48
2019-03-21T01:12:57.405Z,5.43
2019-03-21T01:15:39.488Z,5.50
2019-03-21T01:18:13.971Z,5.55
2019-03-21T01:20:49.562Z,5.53
2019-03-21T01:23:25.354Z,5.55
2019-03-21T01:26:20.530Z,5.46
2019-03-21T01:28:56.584Z,5.43
2019-03-21T01:31:31.919Z,5.48
2019-03-21T01:34:02.216Z,5.60
2019-03-21T01:36:39.288Z,5.67
2019-03-21T01:39:10.276Z,5.74
2019-03-21T01:41:39.770Z,5.68
2019-03-21T01:44:09.437Z,5.62
2019-03-21T01:46:42.114Z,5.58
2019-03-21T01:49:26.564Z,5.61
2019-03-21T01:51:58.117Z,5.61
2019-03-21T01:54:34.063Z,5.64
2019-03-21T01:57:03.631Z,5.74
2019-03-21T01:59:33.292Z,5.76
2019-03-21T02:02:03.145Z,5.77
2019-03-21T02:04:40.801Z,5.68
2019-03-21T02:07:17.114Z,5.67
2019-03-21T02:09:52.812Z,5.65
2019-03-21T02:12:30.755Z,5.65
2019-03-21T02:15:07.295Z,5.70
2019-03-21T02:17:43.382Z,5.65
2019-03-21T02:20:25.611Z,5.60
2019-03-21T02:23:06.499Z,5.62
2019-03-21T02:25:56.302Z,5.63
2019-03-21T02:28:28.017Z,5.60
2019-03-21T02:30:57.712Z,5.56
2019-03-21T02:33:36.373Z,5.54
2019-03-21T02:36:09.423Z,5.56
2019-03-21T02:38:39.198Z,5.54
2019-03-21T02:41:16.824Z,5.59
2019-03-21T02:43:46.688Z,5.60
2019-03-21T02:46:16.385Z,5.62
2019-03-21T02:48:45.921Z,5.64
2019-03-21T02:51:15.435Z,5.61
2019-03-21T02:53:45.390Z,5.62
2019-03-21T02:56:18.422Z,5.62
2019-03-21T02:58:47.887Z,5.68
2019-03-21T03:01:17.444Z,5.71
2019-03-21T03:03:46.949Z,5.73
2019-03-21T03:06:16.758Z,5.74
2019-03-21T03:08:46.194Z,5.71
2019-03-21T03:11:20.751Z,5.69
2019-03-21T03:13:51.147Z,5.63
2019-03-21T03:16:22.479Z,5.64
2019-03-21T03:18:51.956Z,5.58
2019-03-21T03:21:21.424Z,5.55
2019-03-21T03:23:51.157Z,5.51
2019-03-21T03:26:20.708Z,5.50
2019-03-21T03:28:50.389Z,5.53
2019-03-21T03:31:19.918Z,5.55
2019-03-21T03:33:49.380Z,5.51
2019-03-21T03:36:19.182Z,5.47
2019-03-21T03:38:48.672Z,5.44
2019-03-21T03:41:19.958Z,5.41
2019-03-21T03:43:49.685Z,5.42
2019-03-21T03:46:19.131Z,5.47
2019-03-21T03:48:48.605Z,5.45
2019-03-21T03:51:18.044Z,5.39
2019-03-21T03:53:47.773Z,5.35
2019-03-21T03:56:17.308Z,5.36
2019-03-21T03:58:56.578Z,5.36
2019-03-21T04:01:26.044Z,5.32
2019-03-21T04:03:56.627Z,5.25
2019-03-21T04:06:26.460Z,5.15
2019-03-21T04:08:55.914Z,5.10
2019-03-21T04:11:25.369Z,5.05
2019-03-21T04:13:54.832Z,4.94
2019-03-21T04:16:24.590Z,4.82
2019-03-21T04:18:54.345Z,4.69
2019-03-21T04:21:23.803Z,4.57
2019-03-21T04:23:53.326Z,4.53
2019-03-21T04:26:34.547Z,4.49
2019-03-21T04:29:04.001Z,4.46
2019-03-21T04:31:33.527Z,4.42
2019-03-21T04:34:06.515Z,4.39
2019-03-21T04:36:36.818Z,4.34
2019-03-21T04:39:10.168Z,4.33
2019-03-21T04:41:41.766Z,4.38
2019-03-21T04:44:11.501Z,4.52
2019-03-21T04:46:40.955Z,4.56
2019-03-21T04:49:10.434Z,4.47
2019-03-21T04:51:39.889Z,4.43
2019-03-21T04:54:09.369Z,4.40
2019-03-21T04:56:38.833Z,4.38
2019-03-21T04:59:08.354Z,4.39
2019-03-21T05:01:37.796Z,4.42
2019-03-21T05:04:07.267Z,4.40
2019-03-21T05:06:36.711Z,4.41
2019-03-21T05:09:08.368Z,4.38
2019-03-21T05:11:38.097Z,4.45
2019-03-21T05:14:07.582Z,4.47
2019-03-21T05:16:37.022Z,4.44
2019-03-21T05:19:06.694Z,4.44
2019-03-21T05:21:36.137Z,4.53
2019-03-21T05:24:05.602Z,4.55
2019-03-21T05:26:35.060Z,4.68
2019-03-21T05:29:04.532Z,4.71
2019-03-21T05:31:35.621Z,4.70
2019-03-21T05:34:05.335Z,4.68
2019-03-21T05:36:34.823Z,4.67
2019-03-21T05:39:07.625Z,4.68
2019-03-21T05:41:37.140Z,4.66
2019-03-21T05:44:21.812Z,4.60
2019-03-21T05:46:51.559Z,4.59
2019-03-21T05:49:21.021Z,4.60
2019-03-21T05:51:50.467Z,4.60
2019-03-21T05:54:20.021Z,4.65
2019-03-21T05:56:49.782Z,4.78
2019-03-21T05:59:19.252Z,5.04
2019-03-21T06:01:49.009Z,5.19
2019-03-21T06:04:18.459Z,5.32
2019-03-21T06:06:51.404Z,5.49
2019-03-21T06:09:22.769Z,5.73
2019-03-21T06:11:58.215Z,5.97
2019-03-21T06:14:28.943Z,6.13
2019-03-21T06:16:58.402Z,6.15
2019-03-21T06:19:39.958Z,6.05
2019-03-21T06:22:18.294Z,6.06
2019-03-21T06:25:02.860Z,6.27
2019-03-21T06:27:32.300Z,7.07
2019-03-21T06:30:01.759Z,8.10
2019-03-21T06:32:31.584Z,9.52
2019-03-21T06:35:01.355Z,10.34
2019-03-21T06:37:30.810Z,9.67
2019-03-21T06:40:00.430Z,9.67
2019-03-21T06:42:30.272Z,10.13
2019-03-21T06:44:59.752Z,10.27
2019-03-21T06:47:29.216Z,11.01
2019-03-21T06:49:58.694Z,12.10
2019-03-21T06:52:28.507Z,13.07
2019-03-21T06:54:59.883Z,13.10
2019-03-21T06:57:29.156Z,12.61
2019-03-21T06:59:58.897Z,14.26
2019-03-21T07:02:28.372Z,14.26
2019-03-21T07:04:57.884Z,14.92
2019-03-21T07:07:27.340Z,14.54
2019-03-21T07:09:56.816Z,13.97
2019-03-21T07:12:28.126Z,14.81
2019-03-21T07:14:57.593Z,14.84
2019-03-21T07:17:27.047Z,15.67
2019-03-21T07:19:56.848Z,16.64
2019-03-21T07:22:26.303Z,16.45
2019-03-21T07:24:55.772Z,15.69
2019-03-21T07:27:25.288Z,14.87
2019-03-21T07:29:54.772Z,15.85
2019-03-21T07:32:33.088Z,18.10
2019-03-21T07:34:55.752Z,17.63
2019-03-21T07:37:25.535Z,16.72
2019-03-21T07:39:55.344Z,18.85
2019-03-21T07:42:24.806Z,19.40
2019-03-21T07:44:54.272Z,18.90
2019-03-21T07:47:23.738Z,19.10
2019-03-21T07:49:53.531Z,19.54
2019-03-21T07:52:22.995Z,15.72
2019-03-21T07:54:53.018Z,15.71
2019-03-21T07:57:22.477Z,16.83
2019-03-21T07:59:51.953Z,18.60
2019-03-21T08:02:21.717Z,19.12
2019-03-21T08:04:51.183Z,19.40
2019-03-21T08:07:20.655Z,19.93
2019-03-21T08:09:50.892Z,21.09
2019-03-21T08:12:20.662Z,19.88
2019-03-21T08:14:50.159Z,20.12
2019-03-21T08:17:19.643Z,21.49
2019-03-21T08:19:49.123Z,22.01
2019-03-21T08:22:18.896Z,21.28
2019-03-21T08:24:48.438Z,21.26
2019-03-21T08:27:18.218Z,22.81
2019-03-21T08:29:47.763Z,23.38
2019-03-21T08:32:17.536Z,23.31
2019-03-21T08:34:47.169Z,22.70
2019-03-21T08:37:16.651Z,22.98
2019-03-21T08:39:46.125Z,22.89
2019-03-21T08:42:15.591Z,23.46
2019-03-21T08:44:45.106Z,23.84
2019-03-21T08:47:14.587Z,23.45
2019-03-21T08:49:44.058Z,24.45
2019-03-21T08:52:13.550Z,25.50
2019-03-21T08:54:43.027Z,25.59
2019-03-21T08:57:12.530Z,24.18
2019-03-21T08:59:42.304Z,25.02
2019-03-21T09:02:11.864Z,24.97
2019-03-21T09:04:41.333Z,24.55
2019-03-21T09:07:11.078Z,24.02
2019-03-21T09:09:40.551Z,23.59
2019-03-21T09:12:10.023Z,23.80
2019-03-21T09:14:39.574Z,23.24
2019-03-21T09:17:09.380Z,23.81
2019-03-21T09:19:38.848Z,24.30
2019-03-21T09:22:08.317Z,24.65
2019-03-21T09:24:37.796Z,24.28
2019-03-21T09:27:07.595Z,24.00
2019-03-21T09:29:37.066Z,23.22
2019-03-21T09:32:06.588Z,23.41
2019-03-21T09:34:36.243Z,24.07
2019-03-21T09:37:05.722Z,24.41
2019-03-21T09:39:35.191Z,24.81
2019-03-21T09:42:04.651Z,25.36
2019-03-21T09:44:34.122Z,25.83
2019-03-21T09:47:03.602Z,25.49
2019-03-21T09:49:33.064Z,26.14
2019-03-21T09:52:02.560Z,26.16
2019-03-21T09:54:32.027Z,25.99
2019-03-21T09:57:01.763Z,25.47
2019-03-21T09:59:31.483Z,25.99
2019-03-21T10:02:00.954Z,26.05
2019-03-21T10:04:30.449Z,23.75
2019-03-21T10:07:00.195Z,24.77
2019-03-21T10:09:29.682Z,26.05
2019-03-21T10:11:59.155Z,26.22
2019-03-21T10:14:28.627Z,26.48
2019-03-21T10:16:58.431Z,27.16
2019-03-21T10:19:27.897Z,26.96
2019-03-21T10:21:57.369Z,27.20
2019-03-21T10:24:26.833Z,26.62
2019-03-21T10:26:56.603Z,25.97
2019-03-21T10:29:26.084Z,26.29
2019-03-21T10:31:55.600Z,25.66
2019-03-21T10:34:25.080Z,26.68
2019-03-21T10:36:54.542Z,26.78
2019-03-21T10:39:24.099Z,25.47
2019-03-21T10:41:53.584Z,26.38
2019-03-21T10:44:23.302Z,25.70
2019-03-21T10:46:53.113Z,26.35
2019-03-21T10:49:22.594Z,25.80
2019-03-21T10:51:55.123Z,26.76
2019-03-21T10:54:23.750Z,27.33
2019-03-21T10:56:53.361Z,26.41
2019-03-21T10:59:22.825Z,26.82
2019-03-21T11:01:52.336Z,26.20
2019-03-21T11:04:21.810Z,25.90
2019-03-21T11:06:54.510Z,26.07
2019-03-21T11:09:24.021Z,26.31
2019-03-21T11:11:53.615Z,26.10
2019-03-21T11:14:23.074Z,25.49
2019-03-21T11:16:52.545Z,25.26
2019-03-21T11:19:22.013Z,24.69
2019-03-21T11:21:51.825Z,25.41
2019-03-21T11:24:21.648Z,25.69
2019-03-21T11:26:51.129Z,25.78
2019-03-21T11:29:20.604Z,25.16
2019-03-21T11:31:50.064Z,26.07
2019-03-21T11:34:19.620Z,25.94
2019-03-21T11:36:49.113Z,25.22
2019-03-21T11:39:18.886Z,25.47
2019-03-21T11:41:48.598Z,25.88
2019-03-21T11:44:18.319Z,26.28
2019-03-21T11:46:47.844Z,26.71
2019-03-21T11:49:17.315Z,26.77
2019-03-21T11:51:46.911Z,26.36
2019-03-21T11:54:16.457Z,26.15
2019-03-21T11:56:45.936Z,26.88
2019-03-21T11:59:15.404Z,27.07
2019-03-21T12:01:44.872Z,27.51
2019-03-21T12:04:14.333Z,26.33
2019-03-21T12:06:43.931Z,25.25
2019-03-21T12:09:13.670Z,24.70
2019-03-21T12:11:43.148Z,24.41
2019-03-21T12:14:12.611Z,25.21
2019-03-21T12:16:42.083Z,25.52
2019-03-21T12:19:11.635Z,25.15
2019-03-21T12:21:41.172Z,25.39
2019-03-21T12:24:10.655Z,25.06
2019-03-21T12:26:40.158Z,25.28
2019-03-21T12:29:09.653Z,25.51
2019-03-21T12:31:39.381Z,25.89
2019-03-21T12:34:08.846Z,26.03
2019-03-21T12:36:38.659Z,26.26
2019-03-21T12:39:08.790Z,25.87
2019-03-21T12:41:38.280Z,25.57
2019-03-21T12:44:07.724Z,25.14
2019-03-21T12:46:37.457Z,24.71
2019-03-21T12:49:06.917Z,24.60
2019-03-21T12:51:36.393Z,24.31
2019-03-21T12:54:05.859Z,24.42
2019-03-21T12:56:35.340Z,24.45
2019-03-21T12:59:04.774Z,24.22
2019-03-21T13:01:34.245Z,23.06
2019-03-21T13:04:04.157Z,23.54
2019-03-21T13:06:33.620Z,23.93
2019-03-21T13:09:04.385Z,23.64
2019-03-21T13:11:33.878Z,24.68
2019-03-21T13:14:04.570Z,25.45
2019-03-21T13:16:34.041Z,25.39
2019-03-21T13:19:03.511Z,24.95
2019-03-21T13:21:33.026Z,24.59
2019-03-21T13:24:02.574Z,24.67
2019-03-21T13:26:32.043Z,24.80
2019-03-21T13:29:01.491Z,24.43
2019-03-21T13:31:31.267Z,24.60
2019-03-21T13:34:01.103Z,24.84
2019-03-21T13:36:30.885Z,22.94
2019-03-21T13:39:00.356Z,23.26
2019-03-21T13:41:29.831Z,24.12
2019-03-21T13:43:59.348Z,24.30
2019-03-21T13:46:28.889Z,23.14
2019-03-21T13:48:58.370Z,23.72
2019-03-21T13:51:27.915Z,23.72
2019-03-21T13:53:57.375Z,23.17
2019-03-21T13:56:37.580Z,22.85
2019-03-21T13:58:57.999Z,22.50
2019-03-21T14:01:30.238Z,22.84
2019-03-21T14:04:09.443Z,22.81
2019-03-21T14:06:49.728Z,23.16
2019-03-21T14:09:21.055Z,23.33
2019-03-21T14:11:57.787Z,23.37
2019-03-21T14:14:33.973Z,23.27
2019-03-21T14:17:21.973Z,22.18
2019-03-21T14:19:55.499Z,22.80
2019-03-21T14:22:33.524Z,22.43
2019-03-21T14:25:11.432Z,22.80
2019-03-21T14:27:47.286Z,22.85
2019-03-21T14:30:24.901Z,22.89
2019-03-21T14:33:02.181Z,22.98
2019-03-21T14:35:44.488Z,22.72
2019-03-21T14:38:26.045Z,23.04
2019-03-21T14:40:56.592Z,23.12
2019-03-21T14:43:33.429Z,22.68
2019-03-21T14:46:17.510Z,22.16
2019-03-21T14:48:51.753Z,22.24
2019-03-21T14:51:27.295Z,22.55
2019-03-21T14:54:01.718Z,22.65
2019-03-21T14:56:37.592Z,22.34
2019-03-21T14:59:11.567Z,22.11
2019-03-21T15:01:50.081Z,22.00
2019-03-21T15:04:24.800Z,21.69
2019-03-21T15:07:01.581Z,21.12
2019-03-21T15:09:39.150Z,21.16
2019-03-21T15:12:13.995Z,21.17
2019-03-21T15:14:54.043Z,21.40
2019-03-21T15:17:25.923Z,21.64
2019-03-21T15:20:03.094Z,22.07
2019-03-21T15:22:38.271Z,22.02
2019-03-21T15:25:16.464Z,21.65
2019-03-21T15:27:52.188Z,21.24
2019-03-21T15:30:25.252Z,21.13
2019-03-21T15:32:57.654Z,20.83
2019-03-21T15:35:32.200Z,20.53
2019-03-21T15:38:06.840Z,20.82
2019-03-21T15:40:39.449Z,20.57
2019-03-21T15:43:20.428Z,20.69
2019-03-21T15:45:53.563Z,20.23
2019-03-21T15:48:26.267Z,20.19
2019-03-21T15:51:05.034Z,19.91
2019-03-21T15:53:35.303Z,19.69
2019-03-21T15:56:09.667Z,19.79
2019-03-21T15:58:45.667Z,19.41
2019-03-21T16:01:22.859Z,19.32
2019-03-21T16:03:57.699Z,19.47
2019-03-21T16:06:33.248Z,19.03
2019-03-21T16:09:09.081Z,18.42
2019-03-21T16:11:39.975Z,18.36
2019-03-21T16:14:14.384Z,18.42
2019-03-21T16:16:48.859Z,18.01
2019-03-21T16:19:25.027Z,18.01
2019-03-21T16:22:01.679Z,17.85
2019-03-21T16:24:37.467Z,17.62
2019-03-21T16:27:11.326Z,17.61
2019-03-21T16:29:50.200Z,17.41
2019-03-21T16:32:25.664Z,16.97
2019-03-21T16:34:59.538Z,16.92
2019-03-21T16:37:42.272Z,16.62
2019-03-21T16:40:21.349Z,16.49
2019-03-21T16:42:57.186Z,16.18
2019-03-21T16:45:33.039Z,15.90
2019-03-21T16:48:09.820Z,15.69
2019-03-21T16:50:40.862Z,15.51
2019-03-21T16:53:18.083Z,15.33
2019-03-21T16:55:52.592Z,15.12
2019-03-21T16:58:32.713Z,14.93
2019-03-21T17:01:02.524Z,14.79
2019-03-21T17:03:45.529Z,14.68
2019-03-21T17:06:20.050Z,14.51
2019-03-21T17:08:57.999Z,14.37
2019-03-21T17:11:34.744Z,14.20
2019-03-21T17:14:08.909Z,14.05
2019-03-21T17:16:49.008Z,13.89
2019-03-21T17:19:27.120Z,13.77
2019-03-21T17:22:00.736Z,13.64
2019-03-21T17:24:40.692Z,13.50
2019-03-21T17:27:21.934Z,13.38
2019-03-21T17:29:57.616Z,13.26
2019-03-21T17:32:32.925Z,13.11
2019-03-21T17:35:04.872Z,13.03
2019-03-21T17:37:46.198Z,12.92
2019-03-21T17:40:21.285Z,12.76
2019-03-21T17:42:54.549Z,12.62
2019-03-21T17:45:31.206Z,12.48
2019-03-21T17:48:03.939Z,12.36
2019-03-21T17:50:37.944Z,12.24
2019-03-21T17:53:20.991Z,12.12
2019-03-21T17:55:58.755Z,12.05
2019-03-21T17:58:40.173Z,11.96
2019-03-21T18:01:14.721Z,11.86
2019-03-21T18:03:44.213Z,11.75
2019-03-21T18:06:20.786Z,11.66
2019-03-21T18:08:54.506Z,11.60
2019-03-21T18:11:31.349Z,11.46
2019-03-21T18:14:02.988Z,11.38
2019-03-21T18:16:33.034Z,11.34
2019-03-21T18:19:05.674Z,11.32
2019-03-21T18:21:41.728Z,11.27
2019-03-21T18:24:14.375Z,11.18
2019-03-21T18:26:48.417Z,11.07
2019-03-21T18:29:23.077Z,10.98
2019-03-21T18:31:58.640Z,10.90
2019-03-21T18:34:32.964Z,10.86
2019-03-21T18:37:10.831Z,10.79
2019-03-21T18:39:42.885Z,10.79
2019-03-21T18:42:20.993Z,10.73
2019-03-21T18:44:56.876Z,10.65
2019-03-21T18:47:31.201Z,10.64
2019-03-21T18:50:02.377Z,10.55
2019-03-21T18:52:40.525Z,10.47
2019-03-21T18:55:15.949Z,10.39
2019-03-21T18:57:52.224Z,10.30
2019-03-21T19:00:29.051Z,10.18
2019-03-21T19:03:03.679Z,10.10
2019-03-21T19:05:36.566Z,10.06
2019-03-21T19:08:10.454Z,10.03
2019-03-21T19:10:53.084Z,9.97
2019-03-21T19:13:28.454Z,9.91
2019-03-21T19:16:02.250Z,9.86
2019-03-21T19:18:35.226Z,9.90
2019-03-21T19:21:17.771Z,9.87
2019-03-21T19:23:58.370Z,9.77
2019-03-21T19:26:37.692Z,9.73
2019-03-21T19:29:09.067Z,9.70
2019-03-21T19:31:47.434Z,9.68
2019-03-21T19:34:31.513Z,9.62
2019-03-21T19:37:16.231Z,9.60
2019-03-21T19:39:55.561Z,9.51
2019-03-21T19:42:28.384Z,9.39
2019-03-21T19:45:02.345Z,9.34
2019-03-21T19:47:32.157Z,9.26
2019-03-21T19:50:01.699Z,9.20
2019-03-21T19:52:31.112Z,9.14
2019-03-21T19:55:01.944Z,9.10
2019-03-21T19:57:31.406Z,9.11
2019-03-21T20:00:00.934Z,9.06
2019-03-21T20:02:30.400Z,9.00
2019-03-21T20:04:59.852Z,8.95
2019-03-21T20:07:29.346Z,8.90
2019-03-21T20:09:58.882Z,8.86
2019-03-21T20:12:28.456Z,8.88
2019-03-21T20:14:58.248Z,8.89
2019-03-21T20:17:27.883Z,8.84
2019-03-21T20:19:57.625Z,8.77
2019-03-21T20:22:27.502Z,8.66
2019-03-21T20:24:57.166Z,8.64
2019-03-21T20:27:26.622Z,8.58
2019-03-21T20:29:56.137Z,8.57
2019-03-21T20:32:25.601Z,8.56
2019-03-21T20:34:55.081Z,8.52
2019-03-21T20:37:24.892Z,8.51
2019-03-21T20:39:54.348Z,8.49
2019-03-21T20:42:23.812Z,8.43
2019-03-21T20:44:53.312Z,8.44
2019-03-21T20:47:22.791Z,8.40
2019-03-21T20:49:52.292Z,8.35
2019-03-21T20:52:21.752Z,8.32
2019-03-21T20:54:51.229Z,8.30
2019-03-21T20:57:20.680Z,8.27
2019-03-21T20:59:50.168Z,8.22
2019-03-21T21:02:19.655Z,8.15
2019-03-21T21:04:49.201Z,8.10
2019-03-21T21:07:18.813Z,8.10
2019-03-21T21:09:48.464Z,8.10
2019-03-21T21:12:18.341Z,8.04
2019-03-21T21:14:47.796Z,8.05
2019-03-21T21:17:17.252Z,8.03
2019-03-21T21:19:46.736Z,8.03
2019-03-21T21:22:16.269Z,8.12
2019-03-21T21:24:45.808Z,8.15
2019-03-21T21:27:15.260Z,8.09
2019-03-21T21:29:44.741Z,8.05
2019-03-21T21:32:16.114Z,8.02
2019-03-21T21:34:49.377Z,8.01
2019-03-21T21:37:21.291Z,7.99
2019-03-21T21:39:54.113Z,8.02
2019-03-21T21:42:28.272Z,8.10
2019-03-21T21:45:06.410Z,8.11
2019-03-21T21:47:40.568Z,8.05
2019-03-21T21:50:13.785Z,8.02
2019-03-21T21:52:50.051Z,8.01
2019-03-21T21:55:26.302Z,8.03
2019-03-21T21:58:07.449Z,7.97
2019-03-21T22:00:48.825Z,7.90
2019-03-21T22:03:18.547Z,7.84
2019-03-21T22:06:03.524Z,7.82
2019-03-21T22:08:41.250Z,7.77
2019-03-21T22:11:19.675Z,7.75
2019-03-21T22:13:49.516Z,7.68
2019-03-21T22:16:32.395Z,7.65
2019-03-21T22:19:13.369Z,7.60
2019-03-21T22:21:59.835Z,7.56
2019-03-21T22:24:30.584Z,7.53
2019-03-21T22:27:02.736Z,7.44
2019-03-21T22:32:43.327Z,7.44
2019-03-21T22:35:14.724Z,7.41
2019-03-21T22:37:49.333Z,7.39
2019-03-21T22:40:27.948Z,7.38
2019-03-21T22:43:23.366Z,7.39
2019-03-21T22:46:00.600Z,7.40
2019-03-21T22:48:31.962Z,7.40
2019-03-21T22:51:06.706Z,7.35
2019-03-21T22:53:47.269Z,7.25
2019-03-21T22:56:40.496Z,7.17
2019-03-21T22:59:06.736Z,7.15
2019-03-21T23:01:47.719Z,7.12
2019-03-21T23:04:18.195Z,7.05
2019-03-21T23:07:02.715Z,7.02
2019-03-21T23:09:43.186Z,7.02
2019-03-21T23:12:17.830Z,7.03
2019-03-21T23:14:48.868Z,7.03
2019-03-21T23:17:18.350Z,7.00
2019-03-21T23:19:47.858Z,6.98
2019-03-21T23:22:17.330Z,7.00
2019-03-21T23:24:46.851Z,7.02
2019-03-21T23:27:16.315Z,7.05
2019-03-21T23:29:45.766Z,6.99
2019-03-21T23:32:15.234Z,6.92
2019-03-21T23:34:44.692Z,6.91
2019-03-21T23:37:14.271Z,6.99
2019-03-21T23:39:44.075Z,6.92
2019-03-21T23:42:13.644Z,6.85
2019-03-21T23:44:43.087Z,6.78
2019-03-21T23:47:12.602Z,6.71
2019-03-21T23:49:42.066Z,6.70
2019-03-21T23:52:11.894Z,6.63
2019-03-21T23:54:41.349Z,6.58
2019-03-21T23:57:10.799Z,6.61
2019-03-21T23:59:40.278Z,6.58
